createdAt,value
2022-08-03T00:01:32.950Z,98403.41
2022-08-03T00:04:00.493Z,98392.88
2022-08-03T00:06:27.674Z,98394.03
2022-08-03T00:08:54.767Z,98392.03
2022-08-03T00:11:22.014Z,98397.09
2022-08-03T00:13:49.868Z,98390.72
2022-08-03T00:16:18.239Z,98382.91
2022-08-03T00:18:45.520Z,98380.25
2022-08-03T00:21:13.785Z,98386.00
2022-08-03T00:23:51.139Z,98377.28
2022-08-03T00:26:19.255Z,98367.22
2022-08-03T00:28:46.339Z,98368.94
2022-08-03T00:31:13.879Z,98363.16
2022-08-03T00:33:58.083Z,98356.09
2022-08-03T00:36:27.432Z,98348.19
2022-08-03T00:38:54.801Z,98351.31
2022-08-03T00:41:22.119Z,98353.41
2022-08-03T00:43:49.357Z,98348.38
2022-08-03T00:46:20.775Z,98344.38
2022-08-03T00:48:52.896Z,98346.88
2022-08-03T00:51:22.040Z,98338.81
2022-08-03T00:53:50.262Z,98341.03
2022-08-03T00:56:17.822Z,98344.63
2022-08-03T00:58:46.334Z,98343.84
2022-08-03T01:01:14.120Z,98338.91
2022-08-03T01:03:41.582Z,98336.78
2022-08-03T01:06:20.558Z,98330.09
2022-08-03T01:09:21.080Z,98318.59
2022-08-03T01:12:01.971Z,98321.78
2022-08-03T01:14:46.884Z,98320.28
2022-08-03T01:17:20.695Z,98318.25
2022-08-03T01:19:54.929Z,98320.28
2022-08-03T01:22:33.910Z,98321.94
2022-08-03T01:25:25.315Z,98325.31
2022-08-03T01:28:13.809Z,98323.59
2022-08-03T01:30:46.291Z,98323.84
2022-08-03T01:33:19.147Z,98325.31
2022-08-03T01:35:51.512Z,98326.28
2022-08-03T01:38:28.197Z,98323.25
2022-08-03T01:40:57.246Z,98312.00
2022-08-03T01:44:27.652Z,98316.94
2022-08-03T01:46:20.397Z,98313.34
2022-08-03T01:48:49.329Z,98317.25
2022-08-03T01:51:20.088Z,98313.13
2022-08-03T01:53:50.421Z,98315.31
2022-08-03T01:56:20.675Z,98313.31
2022-08-03T01:58:50.146Z,98310.28
2022-08-03T02:01:18.357Z,98313.88
2022-08-03T02:04:00.212Z,98312.78
2022-08-03T02:07:01.728Z,98306.41
2022-08-03T02:09:21.551Z,98310.75
2022-08-03T02:11:50.018Z,98310.03
2022-08-03T02:14:18.809Z,98312.22
2022-08-03T02:16:46.598Z,98314.44
2022-08-03T02:19:15.066Z,98312.78
2022-08-03T02:21:56.272Z,98314.00
2022-08-03T02:24:29.047Z,98315.69
2022-08-03T02:26:57.775Z,98307.59
2022-08-03T02:29:39.824Z,98307.06
2022-08-03T02:32:12.860Z,98294.88
2022-08-03T02:34:42.733Z,98303.72
2022-08-03T02:37:12.052Z,98305.97
2022-08-03T02:39:42.288Z,98302.84
2022-08-03T02:42:12.824Z,98304.31
2022-08-03T02:44:41.899Z,98305.53
2022-08-03T02:47:12.166Z,98304.78
2022-08-03T02:49:50.419Z,98305.53
2022-08-03T02:52:21.296Z,98304.53
2022-08-03T02:54:51.471Z,98302.47
2022-08-03T02:57:21.847Z,98308.53
2022-08-03T02:59:50.097Z,98307.28
2022-08-03T03:02:18.639Z,98300.91
2022-08-03T03:05:51.113Z,98298.72
2022-08-03T03:07:45.417Z,98304.59
2022-08-03T03:10:21.438Z,98297.28
2022-08-03T03:12:51.491Z,98300.72
2022-08-03T03:15:19.306Z,98296.56
2022-08-03T03:17:48.541Z,98293.38
2022-08-03T03:20:28.922Z,98297.00
2022-08-03T03:22:59.383Z,98291.63
2022-08-03T03:25:27.052Z,98291.19
2022-08-03T03:27:54.390Z,98280.91
2022-08-03T03:30:21.973Z,98284.53
2022-08-03T03:32:50.185Z,98284.81
2022-08-03T03:35:19.433Z,98274.09
2022-08-03T03:37:46.839Z,98276.78
2022-08-03T03:40:15.066Z,98271.63
2022-08-03T03:42:42.420Z,98273.28
2022-08-03T03:45:10.219Z,98272.28
2022-08-03T03:47:38.202Z,98269.81
2022-08-03T03:50:06.993Z,98264.66
2022-08-03T03:52:34.692Z,98273.66
2022-08-03T03:55:02.016Z,98271.69
2022-08-03T03:57:29.885Z,98275.84
2022-08-03T03:59:57.410Z,98280.19
2022-08-03T04:02:24.908Z,98280.41
2022-08-03T04:05:10.379Z,98275.53
2022-08-03T04:08:08.989Z,98279.75
2022-08-03T04:10:56.524Z,98278.31
2022-08-03T04:13:23.988Z,98275.38
2022-08-03T04:15:52.147Z,98281.31
2022-08-03T04:18:20.415Z,98286.56
2022-08-03T04:20:50.526Z,98275.09
2022-08-03T04:23:20.185Z,98277.56
2022-08-03T04:25:52.090Z,98275.09
2022-08-03T04:28:30.519Z,98276.56
2022-08-03T04:31:01.580Z,98280.47
2022-08-03T04:33:32.465Z,98281.94
2022-08-03T04:36:03.730Z,98276.34
2022-08-03T04:38:37.095Z,98277.78
2022-08-03T04:41:04.920Z,98279.59
2022-08-03T04:43:34.555Z,98274.94
2022-08-03T04:46:02.483Z,98268.59
2022-08-03T04:48:30.045Z,98274.91
2022-08-03T04:50:57.670Z,98274.91
2022-08-03T04:53:24.900Z,98266.84
2022-08-03T04:55:52.032Z,98271.19
2022-08-03T04:58:19.108Z,98271.19
2022-08-03T05:00:51.376Z,98270.47
2022-08-03T05:03:23.920Z,98266.53
2022-08-03T05:06:00.559Z,98268.00
2022-08-03T05:08:46.318Z,98274.09
2022-08-03T05:11:16.023Z,98264.38
2022-08-03T05:13:45.242Z,98264.38
2022-08-03T05:16:14.255Z,98265.38
2022-08-03T05:18:42.659Z,98261.47
2022-08-03T05:21:11.112Z,98262.50
2022-08-03T05:23:38.339Z,98262.22
2022-08-03T05:26:05.653Z,98267.06
2022-08-03T05:28:32.823Z,98264.38
2022-08-03T05:30:59.937Z,98268.28
2022-08-03T05:33:27.171Z,98269.72
2022-08-03T05:36:01.701Z,98260.00
2022-08-03T05:38:34.000Z,98270.31
2022-08-03T05:41:22.682Z,98274.28
2022-08-03T05:43:48.991Z,98278.91
2022-08-03T05:46:16.458Z,98276.69
2022-08-03T05:48:43.654Z,98279.16
2022-08-03T05:51:13.908Z,98283.63
2022-08-03T05:53:42.106Z,98280.97
2022-08-03T05:56:15.284Z,98283.34
2022-08-03T05:58:47.960Z,98289.00
2022-08-03T06:01:16.969Z,98284.59
2022-08-03T06:03:45.334Z,98285.81
2022-08-03T06:06:12.457Z,98287.53
2022-08-03T06:08:40.489Z,98277.53
2022-08-03T06:11:08.379Z,98282.91
2022-08-03T06:13:36.493Z,98285.59
2022-08-03T06:16:04.109Z,98287.53
2022-08-03T06:18:31.672Z,98292.63
2022-08-03T06:20:58.865Z,98297.81
2022-08-03T06:23:53.485Z,98296.66
2022-08-03T06:26:26.946Z,98306.84
2022-08-03T06:28:55.380Z,98312.22
2022-08-03T06:31:26.331Z,98313.25
2022-08-03T06:34:32.699Z,98310.78
2022-08-03T06:36:50.475Z,98309.09
2022-08-03T06:39:18.852Z,98320.06
2022-08-03T06:41:46.054Z,98318.13
2022-08-03T06:44:13.534Z,98322.94
2022-08-03T06:46:40.945Z,98327.88
2022-08-03T06:49:08.439Z,98325.56
2022-08-03T06:52:03.051Z,98326.28
2022-08-03T06:54:22.891Z,98334.03
2022-08-03T06:56:50.049Z,98332.28
2022-08-03T07:00:09.251Z,98329.09
2022-08-03T07:02:04.535Z,98328.31
2022-08-03T07:04:31.812Z,98336.09
2022-08-03T07:06:58.974Z,98333.41
2022-08-03T07:09:27.072Z,98325.31
2022-08-03T07:11:55.474Z,98331.44
2022-08-03T07:14:22.600Z,98330.66
2022-08-03T07:16:49.831Z,98330.00
2022-08-03T07:19:17.109Z,98337.38
2022-08-03T07:21:44.332Z,98339.88
2022-08-03T07:24:11.718Z,98350.94
2022-08-03T07:26:38.840Z,98338.75
2022-08-03T07:29:10.907Z,98343.31
2022-08-03T07:31:42.529Z,98345.63
2022-08-03T07:34:09.774Z,98345.19
2022-08-03T07:36:37.109Z,98344.75
2022-08-03T07:39:16.482Z,98340.06
2022-08-03T07:41:46.007Z,98346.34
2022-08-03T07:44:13.326Z,98344.63
2022-08-03T07:46:40.472Z,98354.16
2022-08-03T07:49:07.690Z,98350.53
2022-08-03T07:51:35.293Z,98341.25
2022-08-03T07:54:02.614Z,98346.69
2022-08-03T07:56:30.114Z,98352.94
2022-08-03T07:58:57.335Z,98350.25
2022-08-03T08:01:24.880Z,98357.50
2022-08-03T08:03:52.683Z,98350.94
2022-08-03T08:06:21.294Z,98349.63
2022-08-03T08:08:48.545Z,98352.72
2022-08-03T08:11:15.836Z,98342.69
2022-08-03T08:13:42.967Z,98344.88
2022-08-03T08:16:10.091Z,98344.25
2022-08-03T08:18:37.383Z,98352.06
2022-08-03T08:21:04.584Z,98344.53
2022-08-03T08:23:43.752Z,98344.66
2022-08-03T08:26:12.539Z,98355.13
2022-08-03T08:28:39.816Z,98358.59
2022-08-03T08:31:07.149Z,98348.75
2022-08-03T08:34:03.288Z,98350.88
2022-08-03T08:36:22.753Z,98361.25
2022-08-03T08:38:50.005Z,98362.16
2022-08-03T08:41:17.652Z,98367.94
2022-08-03T08:43:44.754Z,98364.69
2022-08-03T08:46:23.145Z,98363.44
2022-08-03T08:48:52.503Z,98371.50
2022-08-03T08:51:21.042Z,98377.31
2022-08-03T08:53:54.343Z,98377.31
2022-08-03T08:56:25.927Z,98380.63
2022-08-03T08:58:58.429Z,98371.28
2022-08-03T09:01:29.545Z,98370.47
2022-08-03T09:03:56.748Z,98376.38
2022-08-03T09:06:24.455Z,98371.84
2022-08-03T09:08:51.801Z,98367.66
2022-08-03T09:11:51.784Z,98377.38
2022-08-03T09:14:36.846Z,98372.31
2022-08-03T09:17:02.440Z,98380.00
2022-08-03T09:19:34.262Z,98383.97
2022-08-03T09:22:14.289Z,98390.41
2022-08-03T09:25:22.650Z,98386.38
2022-08-03T09:27:47.208Z,98391.53
2022-08-03T09:30:32.193Z,98393.50
2022-08-03T09:33:08.409Z,98406.19
2022-08-03T09:35:59.717Z,98406.72
2022-08-03T09:38:27.816Z,98408.03
2022-08-03T09:40:59.804Z,98407.72
2022-08-03T09:43:28.411Z,98413.09
2022-08-03T09:46:07.856Z,98416.84
2022-08-03T09:48:35.952Z,98409.41
2022-08-03T09:51:14.504Z,98402.19
2022-08-03T09:53:58.604Z,98408.78
2022-08-03T09:56:40.994Z,98415.41
2022-08-03T09:59:08.777Z,98411.63
2022-08-03T10:01:37.765Z,98414.63
2022-08-03T10:04:05.418Z,98412.59
2022-08-03T10:06:32.953Z,98408.81
2022-08-03T10:09:09.103Z,98416.78
2022-08-03T10:11:41.188Z,98410.97
2022-08-03T10:14:11.758Z,98410.75
2022-08-03T10:16:40.918Z,98403.16
2022-08-03T10:19:10.100Z,98406.75
2022-08-03T10:21:39.820Z,98404.38
2022-08-03T10:24:09.452Z,98403.03
2022-08-03T10:26:39.267Z,98397.66
2022-08-03T10:29:23.039Z,98404.84
2022-08-03T10:31:58.163Z,98401.50
2022-08-03T10:34:35.652Z,98393.63
2022-08-03T10:37:08.814Z,98399.47
2022-08-03T10:39:36.715Z,98392.59
2022-08-03T10:42:06.141Z,98388.69
2022-08-03T10:44:42.925Z,98391.16
2022-08-03T10:47:10.743Z,98387.22
2022-08-03T10:49:38.605Z,98386.72
2022-08-03T10:52:12.893Z,98385.50
2022-08-03T10:55:07.561Z,98393.03
2022-08-03T10:58:01.402Z,98389.84
2022-08-03T11:00:30.748Z,98399.88
2022-08-03T11:03:16.958Z,98396.44
2022-08-03T11:05:54.827Z,98399.47
2022-08-03T11:08:38.068Z,98395.84
2022-08-03T11:11:17.514Z,98386.84
2022-08-03T11:14:05.650Z,98401.22
2022-08-03T11:16:58.963Z,98406.06
2022-08-03T11:19:57.486Z,98402.34
2022-08-03T11:22:25.804Z,98405.38
2022-08-03T11:24:56.787Z,98409.19
2022-08-03T11:27:26.179Z,98414.81
2022-08-03T11:30:07.074Z,98415.94
2022-08-03T11:32:49.172Z,98416.34
2022-08-03T11:35:20.973Z,98420.69
2022-08-03T11:38:06.461Z,98424.84
2022-08-03T11:40:36.537Z,98429.91
2022-08-03T11:43:22.818Z,98427.00
2022-08-03T11:46:28.468Z,98421.25
2022-08-03T11:49:09.792Z,98418.75
2022-08-03T11:51:39.124Z,98421.63
2022-08-03T11:54:07.346Z,98420.78
2022-08-03T11:56:49.486Z,98422.88
2022-08-03T11:59:21.997Z,98422.47
2022-08-03T12:01:50.397Z,98420.78
2022-08-03T12:04:17.661Z,98423.69
2022-08-03T12:07:02.106Z,98430.53
2022-08-03T12:09:29.260Z,98426.78
2022-08-03T12:12:00.621Z,98427.84
2022-08-03T12:14:48.454Z,98426.38
2022-08-03T12:17:17.388Z,98434.09
2022-08-03T12:19:45.379Z,98424.94
2022-08-03T12:22:12.525Z,98430.34
2022-08-03T12:24:46.895Z,98432.56
2022-08-03T12:27:23.783Z,98422.66
2022-08-03T12:29:59.176Z,98432.47
2022-08-03T12:32:30.656Z,98436.31
2022-08-03T12:35:04.792Z,98433.19
2022-08-03T12:37:32.783Z,98434.84
2022-08-03T12:40:09.351Z,98432.91
2022-08-03T12:42:39.694Z,98434.44
2022-08-03T12:45:21.385Z,98427.75
2022-08-03T12:47:52.311Z,98433.81
2022-08-03T12:50:36.309Z,98431.25
2022-08-03T12:53:08.037Z,98425.16
2022-08-03T12:55:57.192Z,98419.66
2022-08-03T12:58:34.636Z,98425.56
2022-08-03T13:01:05.022Z,98414.91
2022-08-03T13:03:45.915Z,98418.09
2022-08-03T13:06:35.249Z,98428.34
2022-08-03T13:09:06.296Z,98412.72
2022-08-03T13:11:57.772Z,98410.47
2022-08-03T13:14:21.725Z,98413.78
2022-08-03T13:16:49.942Z,98414.56
2022-08-03T13:19:17.042Z,98411.09
2022-08-03T13:21:53.440Z,98403.44
2022-08-03T13:24:32.281Z,98410.03
2022-08-03T13:27:00.411Z,98408.59
2022-08-03T13:29:27.515Z,98407.13
2022-08-03T13:31:54.790Z,98406.31
2022-08-03T13:34:23.875Z,98406.31
2022-08-03T13:37:10.448Z,98406.50
2022-08-03T13:39:48.172Z,98424.44
2022-08-03T13:42:25.996Z,98421.75
2022-08-03T13:44:53.217Z,98428.88
2022-08-03T13:47:20.970Z,98424.94
2022-08-03T13:49:54.115Z,98419.34
2022-08-03T13:52:28.536Z,98413.97
2022-08-03T13:54:55.828Z,98422.44
2022-08-03T13:58:02.506Z,98424.94
2022-08-03T14:00:10.775Z,98419.16
2022-08-03T14:02:38.469Z,98411.28
2022-08-03T14:05:06.085Z,98405.59
2022-08-03T14:07:33.198Z,98409.44
2022-08-03T14:10:01.983Z,98403.19
2022-08-03T14:12:29.427Z,98405.47
2022-08-03T14:14:59.592Z,98399.47
2022-08-03T14:17:32.642Z,98406.91
2022-08-03T14:20:36.684Z,98388.72
2022-08-03T14:22:57.876Z,98389.31
2022-08-03T14:25:25.279Z,98383.47
2022-08-03T14:27:52.603Z,98375.88
2022-08-03T14:30:20.009Z,98377.63
2022-08-03T14:32:47.185Z,98375.50
2022-08-03T14:35:14.294Z,98375.50
2022-08-03T14:37:41.423Z,98375.78
2022-08-03T14:40:09.365Z,98376.72
2022-08-03T14:42:36.503Z,98373.00
2022-08-03T14:45:09.013Z,98369.38
2022-08-03T14:50:10.462Z,98360.06
2022-08-03T14:50:32.519Z,98356.66
2022-08-03T14:53:06.487Z,98352.31
2022-08-03T14:55:38.937Z,98361.72
2022-08-03T14:58:20.784Z,98348.53
2022-08-03T15:00:50.012Z,98352.88
2022-08-03T15:03:20.699Z,98357.81
2022-08-03T15:05:48.013Z,98351.56
2022-08-03T15:08:15.152Z,98342.47
2022-08-03T15:10:44.518Z,98341.19
2022-08-03T15:13:13.395Z,98345.16
2022-08-03T15:15:40.897Z,98347.84
2022-08-03T15:18:08.557Z,98338.66
2022-08-03T15:20:44.314Z,98348.81
2022-08-03T15:23:13.418Z,98344.28
2022-08-03T15:26:29.292Z,98343.94
2022-08-03T15:28:27.694Z,98343.34
2022-08-03T15:30:55.259Z,98343.53
2022-08-03T15:33:22.407Z,98339.63
2022-08-03T15:35:50.203Z,98338.00
2022-08-03T15:38:17.692Z,98347.25
2022-08-03T15:40:45.144Z,98348.78
2022-08-03T15:43:12.339Z,98342.97
2022-08-03T15:45:41.977Z,98343.22
2022-08-03T15:48:09.405Z,98336.19
2022-08-03T15:50:36.776Z,98334.00
2022-08-03T15:53:05.138Z,98335.97
2022-08-03T15:55:32.531Z,98335.16
2022-08-03T15:59:03.989Z,98339.03
2022-08-03T16:00:47.218Z,98327.97
2022-08-03T16:03:14.337Z,98327.06
2022-08-03T16:05:41.446Z,98329.00
2022-08-03T16:08:13.520Z,98328.47
2022-08-03T16:10:41.201Z,98324.56
2022-08-03T16:13:08.918Z,98324.44
2022-08-03T16:15:38.474Z,98321.47
2022-08-03T16:18:09.263Z,98313.81
2022-08-03T16:20:36.657Z,98322.75
2022-08-03T16:23:10.463Z,98318.38
2022-08-03T16:25:42.632Z,98320.88
2022-08-03T16:28:14.242Z,98324.59
2022-08-03T16:30:43.661Z,98319.72
2022-08-03T16:33:16.716Z,98321.47
2022-08-03T16:35:45.886Z,98316.09
2022-08-03T16:38:18.212Z,98316.53
2022-08-03T16:40:47.413Z,98319.41
2022-08-03T16:43:18.957Z,98315.09
2022-08-03T16:45:47.424Z,98322.31
2022-08-03T16:48:15.699Z,98326.56
2022-08-03T16:50:42.981Z,98313.63
2022-08-03T16:53:16.396Z,98312.78
2022-08-03T16:55:53.817Z,98321.47
2022-08-03T16:58:24.317Z,98323.66
2022-08-03T17:01:01.587Z,98328.31
2022-08-03T17:03:42.713Z,98316.09
2022-08-03T17:06:25.794Z,98319.22
2022-08-03T17:09:01.099Z,98322.03
2022-08-03T17:11:28.311Z,98323.44
2022-08-03T17:13:57.139Z,98318.38
2022-08-03T17:16:25.949Z,98315.09
2022-08-03T17:18:57.781Z,98322.94
2022-08-03T17:21:32.410Z,98325.84
2022-08-03T17:24:42.233Z,98320.97
2022-08-03T17:28:41.707Z,98321.72
2022-08-03T17:30:07.777Z,98319.81
2022-08-03T17:32:42.460Z,98327.88
2022-08-03T17:35:10.777Z,98320.34
2022-08-03T17:37:57.915Z,98314.97
2022-08-03T17:40:25.697Z,98314.88
2022-08-03T17:42:53.249Z,98316.00
2022-08-03T17:45:20.726Z,98312.63
2022-08-03T17:47:57.865Z,98313.41
2022-08-03T17:50:33.677Z,98311.63
2022-08-03T17:53:15.355Z,98317.66
2022-08-03T17:56:42.452Z,98306.59
2022-08-03T17:59:51.858Z,98305.78
2022-08-03T18:03:04.844Z,98307.41
2022-08-03T18:06:11.371Z,98311.03
2022-08-03T18:08:26.789Z,98307.84
2022-08-03T18:11:09.812Z,98308.88
2022-08-03T18:13:58.705Z,98304.09
2022-08-03T18:16:35.057Z,98316.53
2022-08-03T18:19:09.487Z,98310.84
2022-08-03T18:22:03.186Z,98307.63
2022-08-03T18:24:31.305Z,98318.00
2022-08-03T18:27:00.120Z,98320.69
2022-08-03T18:29:31.130Z,98317.31
2022-08-03T18:32:04.003Z,98311.75
2022-08-03T18:34:34.748Z,98308.88
2022-08-03T18:37:07.195Z,98317.47
2022-08-03T18:39:49.388Z,98315.28
2022-08-03T18:42:19.479Z,98312.09
2022-08-03T18:44:54.181Z,98314.56
2022-08-03T18:47:51.673Z,98315.28
2022-08-03T18:50:34.895Z,98314.25
2022-08-03T18:53:15.799Z,98320.25
2022-08-03T18:56:15.864Z,98319.81
2022-08-03T18:59:02.770Z,98318.91
2022-08-03T19:02:00.573Z,98317.44
2022-08-03T19:04:44.657Z,98325.19
2022-08-03T19:07:17.534Z,98322.72
2022-08-03T19:09:54.838Z,98319.63
2022-08-03T19:12:37.397Z,98319.94
2022-08-03T19:15:10.360Z,98318.56
2022-08-03T19:17:50.040Z,98321.03
2022-08-03T19:20:22.820Z,98317.03
2022-08-03T19:22:53.786Z,98311.56
2022-08-03T19:25:34.349Z,98322.31
2022-08-03T19:28:06.265Z,98324.78
2022-08-03T19:30:40.516Z,98324.88
2022-08-03T19:33:09.370Z,98331.34
2022-08-03T19:35:55.244Z,98321.00
2022-08-03T19:38:29.185Z,98323.97
2022-08-03T19:41:03.520Z,98327.44
2022-08-03T19:43:53.118Z,98319.47
2022-08-03T19:46:30.678Z,98317.13
2022-08-03T19:49:10.324Z,98322.81
2022-08-03T19:51:58.294Z,98318.75
2022-08-03T19:54:39.644Z,98317.59
2022-08-03T19:57:25.590Z,98320.59
2022-08-03T19:59:56.437Z,98316.22
2022-08-03T20:02:26.481Z,98316.75
2022-08-03T20:04:56.992Z,98320.22
2022-08-03T20:07:25.983Z,98317.31
2022-08-03T20:09:56.500Z,98325.13
2022-08-03T20:12:27.478Z,98314.94
2022-08-03T20:14:58.808Z,98322.75
2022-08-03T20:17:54.631Z,98319.22
2022-08-03T20:20:14.188Z,98325.34
2022-08-03T20:22:45.523Z,98327.84
2022-08-03T20:25:20.855Z,98331.38
2022-08-03T20:28:07.309Z,98340.94
2022-08-03T20:30:43.783Z,98336.56
2022-08-03T20:33:11.460Z,98343.38
2022-08-03T20:35:45.734Z,98346.56
2022-08-03T20:38:13.176Z,98344.63
2022-08-03T20:40:40.360Z,98336.84
2022-08-03T20:43:09.620Z,98341.03
2022-08-03T20:46:00.946Z,98347.63
2022-08-03T20:48:26.967Z,98344.00
2022-08-03T20:50:56.933Z,98351.31
2022-08-03T20:53:56.764Z,98350.31
2022-08-03T20:56:14.551Z,98357.38
2022-08-03T20:58:42.823Z,98359.03
2022-08-03T21:01:27.715Z,98354.19
2022-08-03T21:04:09.375Z,98362.50
2022-08-03T21:06:42.264Z,98364.72
2022-08-03T21:09:19.139Z,98370.09
2022-08-03T21:11:52.705Z,98374.25
2022-08-03T21:14:25.817Z,98372.94
2022-08-03T21:16:53.975Z,98374.63
2022-08-03T21:19:23.256Z,98378.50
2022-08-03T21:21:50.956Z,98377.69
2022-08-03T21:24:20.135Z,98374.00
2022-08-03T21:26:49.691Z,98391.53
2022-08-03T21:29:17.662Z,98379.38
2022-08-03T21:31:45.158Z,98380.09
2022-08-03T21:34:12.338Z,98382.25
2022-08-03T21:36:39.780Z,98380.31
2022-08-03T21:39:09.242Z,98380.03
2022-08-03T21:41:38.086Z,98381.25
2022-08-03T21:44:06.741Z,98383.72
2022-08-03T21:46:37.262Z,98376.41
2022-08-03T21:50:04.834Z,98383.44
2022-08-03T21:52:03.247Z,98379.00
2022-08-03T21:54:37.635Z,98377.50
2022-08-03T21:57:09.245Z,98384.63
2022-08-03T21:59:38.438Z,98383.63
2022-08-03T22:02:22.808Z,98387.50
2022-08-03T22:04:56.281Z,98388.97
2022-08-03T22:07:27.274Z,98392.59
2022-08-03T22:09:58.874Z,98392.41
2022-08-03T22:12:28.234Z,98393.53
2022-08-03T22:15:01.144Z,98398.13
2022-08-03T22:17:53.848Z,98397.91
2022-08-03T22:20:21.233Z,98400.34
2022-08-03T22:22:53.552Z,98398.41
2022-08-03T22:25:29.217Z,98400.59
2022-08-03T22:27:59.335Z,98395.22
2022-08-03T22:30:26.675Z,98397.19
2022-08-03T22:32:56.686Z,98392.75
2022-08-03T22:35:26.307Z,98399.56
2022-08-03T22:37:55.929Z,98397.66
2022-08-03T22:40:23.175Z,98395.56
2022-08-03T22:42:52.110Z,98386.78
2022-08-03T22:46:07.242Z,98387.97
2022-08-03T22:48:08.664Z,98389.41
2022-08-03T22:50:36.089Z,98378.25
2022-08-03T22:53:03.713Z,98381.94
2022-08-03T22:55:31.865Z,98381.69
2022-08-03T22:57:58.962Z,98387.78
2022-08-03T23:00:26.199Z,98377.81
2022-08-03T23:02:55.504Z,98385.63
2022-08-03T23:06:00.914Z,98382.50
2022-08-03T23:08:23.307Z,98374.00
2022-08-03T23:10:51.399Z,98374.34
2022-08-03T23:13:19.553Z,98382.19
2022-08-03T23:15:56.892Z,98377.03
2022-08-03T23:18:25.301Z,98371.66
2022-08-03T23:20:53.857Z,98366.09
2022-08-03T23:23:23.253Z,98364.84
2022-08-03T23:25:51.983Z,98367.28
2022-08-03T23:28:19.622Z,98369.09
2022-08-03T23:30:49.275Z,98362.56
2022-08-03T23:33:18.769Z,98359.59
2022-08-03T23:36:29.773Z,98362.50
2022-08-03T23:38:46.390Z,98368.09
2022-08-03T23:41:14.463Z,98363.72
2022-08-03T23:43:52.127Z,98359.38
2022-08-03T23:46:22.770Z,98367.41
2022-08-03T23:48:51.175Z,98364.97
2022-08-03T23:51:53.560Z,98360.84
2022-08-03T23:54:35.619Z,98353.06
2022-08-03T23:57:33.210Z,98360.63
